x

West Dixon Entrance (46205) Wave Buoy

2:00am - Wed 22nd Feb 2017 All times are PST. -8 hours from GMT.

  • Sig Wave height 7.2ft
  • Peak Period 8s
  • Wind
    18mph, 22mph gusts
  • Sea Temp 44°f
  • Air Temp 39°f
  • Sea Pressure 1023.8mb
  • West Dixon Entrance
  • West Dixon Entrance

More Historic Weather Station data

Upgrade to MSW Pro to gain access to the past 30 days of data for over 8000 Wavebouys and Weather Stations around the globe.

Join Pro

Comparision Forecast

View Surf forecast
   
Wed 02/22 2:00am 7ft 8s 18 22 mph 1023.8mb 44f 39f
1:00am 7ft 8s 18 22 mph 1023.2mb 44f 39f
12:00am 8ft 7s 18 25 mph 1022.5mb 44f 38f
Tue 02/21 11:00pm 7.5ft 6s 22 29 mph 1021.3mb 44f 39f
10:00pm 7ft 6s 25 29 mph 1020.5mb 44f 37f
9:00pm 7.5ft 10s 20 25 mph 1020.2mb 44f 37f
8:00pm 6ft 6s 22 29 mph 1019.2mb 44f 38f
7:00pm 6ft 11s 16 20 mph 1018.7mb 45f 39f
6:00pm 6ft 7s 11 16 mph 1018.3mb 45f 39f
5:00pm 6.5ft 6s 16 18 mph 1018.1mb 45f 38f
3:00pm 6ft 10s 18 22 mph 1017.2mb 45f 40f
2:00pm 6ft 11s 27 31 mph 1016.2mb 45f 39f
1:00pm 5.5ft 6s 18 22 mph 1015.9mb 45f 41f
12:00pm 6ft 10s 18 22 mph 1015.4mb 45f 41f
11:00am 5.5ft 10s 22 27 mph 1014.6mb 45f 39f
10:00am 6ft 12s 18 22 mph 1014.1mb 45f 39f
9:00am 5.5ft 10s 25 31 mph 1013.5mb 45f 36f
8:00am 5.5ft 11s 16 27 mph 1013mb 45f 37f
7:00am 5ft 6s 11 13 mph 1012mb 45f 40f
6:00am 5.5ft 11s 18 22 mph 1011.7mb 45f 38f
5:00am 5ft 11s 13 18 mph 1011.5mb 45f 38f
4:00am 5ft 12s 16 20 mph 1011mb 45f 38f
3:00am 5ft 11s 13 25 mph 1010.4mb 45f 41f
2:00am 4.5ft 12s 13 18 mph 1009.9mb 44f 41f
1:00am 5ft 11s 13 18 mph 1009.5mb 45f 39f
12:00am 5ft 11s 11 13 mph 1009mb 45f 40f
Mon 02/20 11:00pm 5ft 11s 11 16 mph 1008.6mb 45f 40f
10:00pm 5ft 11s 13 20 mph 1008.4mb 45f 38f
9:00pm 5.5ft 11s 13 16 mph 1007.5mb 45f 41f
8:00pm 5ft 10s 16 20 mph 1007.2mb 45f 41f
7:00pm 5.5ft 11s 18 20 mph 1006.9mb 45f 41f
6:00pm 5.5ft 12s 18 22 mph 1006.5mb 45f 41f
5:00pm 5ft 12s 18 22 mph 1006.1mb 45f 41f
4:00pm 5ft 12s 18 22 mph 1005.7mb 45f 41f
3:00pm 5ft 12s 18 20 mph 1005mb 45f 41f
2:00pm 5ft 12s 16 18 mph 1004.5mb 45f 41f
1:00pm 5ft 12s 13 18 mph 1004.3mb 45f 40f
12:00pm 5ft 12s 11 16 mph 1004.1mb 45f 41f
11:00am 5.5ft 12s 13 18 mph 1003.5mb 45f 41f
10:00am 6ft 12s 16 20 mph 1002.8mb 45f 41f
9:00am 5ft 13s 18 22 mph 1002.3mb 45f 41f
8:00am 5.5ft 12s 16 18 mph 1001.8mb 45f 40f
7:00am 5.5ft 13s 16 18 mph 1001.3mb 45f 40f
6:00am 5.5ft 14s 16 20 mph 1001mb 45f 40f
5:00am 6.5ft 13s 16 20 mph 1000.8mb 45f 41f
4:00am 6ft 13s 13 18 mph 1000.8mb 45f 41f
3:00am 6ft 12s 11 16 mph 1000.7mb 45f 41f
2:00am 6ft 14s 11 16 mph 1000.7mb 45f 41f
1:00am 5.5ft 13s 9 13 mph 1000.4mb 45f 41f
12:00am 6.5ft 14s 9 13 mph 1000.2mb 45f 41f
Sun 02/19 11:00pm 6ft 14s 11 16 mph 999.8mb 45f 41f
10:00pm 6.5ft 14s 11 13 mph 999.8mb 45f 41f
9:00pm 7ft 14s 13 16 mph 999.5mb 45f 41f
8:00pm 6ft 15s 11 16 mph 999.3mb 45f 41f
7:00pm 6ft 14s 13 18 mph 999.1mb 45f 40f
6:00pm 6ft 14s 13 18 mph 999.1mb 45f 40f
5:00pm 6ft 14s 13 18 mph 998.8mb 45f 41f
4:00pm 6ft 15s 13 18 mph 998.6mb 45f 41f
3:00pm 6ft 15s 11 16 mph 998.5mb 45f 41f
2:00pm 6ft 16s 9 13 mph 998.5mb 45f 40f
1:00pm 6.5ft 16s 11 13 mph 998.3mb 45f 40f
12:00pm 6ft 16s 11 20 mph 998.6mb 44f 40f
11:00am 6ft 17s 11 13 mph 998.5mb 44f 41f
10:00am 5ft 17s 11 13 mph 998.2mb 44f 40f
9:00am 5.5ft 17s 11 13 mph 998mb 44f 40f
8:00am 5ft 18s 13 18 mph 997.6mb 44f 40f
7:00am 5.5ft 11s 16 18 mph 997.4mb 44f 40f
6:00am 5ft 12s 16 18 mph 997.4mb 44f 40f
5:00am 5.5ft 11s 13 18 mph 997.6mb 44f 40f
4:00am 5.5ft 10s 16 18 mph 997.6mb 44f 40f
3:00am 5.5ft 9s 16 18 mph 997.9mb 44f 40f
2:00am 5.5ft 11s 13 18 mph 997.8mb 44f 40f
1:00am 6ft 10s 13 18 mph 997.9mb 44f 40f
12:00am 6ft 10s 13 18 mph 998mb 44f 41f
Sat 02/18 11:00pm 6ft 10s 13 18 mph 998mb 44f 41f
10:00pm 6ft 10s 18 20 mph 997.6mb 44f 41f
9:00pm 6ft 10s 16 20 mph 997.7mb 44f 41f
8:00pm 6ft 10s 18 20 mph 997.9mb 44f 40f